Time;durP1;ratioP1;P1;durP2;ratioP2;P2;SDS_P1;SDS_P2;PMS_P1;PMS_P2;Temp;Humidity;BMP_temperature;BMP_pressure;BME280_temperature;BME280_humidity;BME280_pressure;Samples;Min_cycle;Max_cycle;Signal;HPM_P1;HPM_P2
2022/08/02 00:01:38;;;;;;;;;2.25;2.00;;;;;23.66;48.94;101630.56;5056970;28;70369;-77
2022/08/02 00:04:03;;;;;;;;;3.50;3.00;;;;;23.57;48.97;101626.75;5063172;28;45759;-77
2022/08/02 00:06:29;;;;;;;;;4.00;4.00;;;;;23.54;49.05;101626.97;5078374;28;45396;-77
2022/08/02 00:08:54;;;;;;;;;8.00;4.25;;;;;23.46;49.53;101619.53;5059516;28;63853;-77
2022/08/02 00:11:19;;;;;;;;;4.75;4.50;;;;;23.43;49.51;101610.94;5077721;28;62901;-77
2022/08/02 00:13:45;;;;;;;;;6.00;6.00;;;;;23.41;49.22;101608.38;5077583;28;59625;-77
2022/08/02 00:16:11;;;;;;;;;4.75;4.75;;;;;23.39;49.87;101615.59;5077346;28;60855;-77
2022/08/02 00:18:36;;;;;;;;;5.50;4.75;;;;;23.30;49.92;101605.63;5078302;28;45423;-77
2022/08/02 00:21:02;;;;;;;;;3.00;3.00;;;;;23.30;49.89;101611.75;5077191;28;72724;-77
2022/08/02 00:23:27;;;;;;;;;7.00;6.00;;;;;23.23;49.91;101613.13;5078192;28;45445;-77
2022/08/02 00:25:52;;;;;;;;;4.00;4.00;;;;;23.27;50.02;101617.31;5077937;28;45384;-77
2022/08/02 00:28:18;;;;;;;;;3.75;3.75;;;;;23.22;50.39;101610.63;5077120;28;68319;-77
2022/08/02 00:30:43;;;;;;;;;6.50;4.75;;;;;23.26;50.17;101618.25;5073272;28;73174;-77
2022/08/02 00:33:08;;;;;;;;;5.25;4.25;;;;;23.20;50.33;101602.75;5038650;28;71622;-77
2022/08/02 00:35:34;;;;;;;;;4.00;3.75;;;;;23.21;50.49;101604.44;5056929;28;62245;-77
2022/08/02 00:38:00;;;;;;;;;4.75;3.75;;;;;23.16;50.52;101599.44;5057807;28;45416;-77
2022/08/02 00:40:26;;;;;;;;;4.00;4.00;;;;;23.22;50.36;101613.28;5056278;28;74552;-77
2022/08/02 00:43:08;;;;;;;;;7.00;4.00;;;;;23.18;50.66;101604.66;5057457;28;45416;-77
2022/08/02 00:45:35;;;;;;;;;4.00;2.75;;;;;23.17;50.72;101611.75;5057311;28;45287;-77
2022/08/02 00:48:01;;;;;;;;;5.50;4.00;;;;;23.17;50.52;101614.41;5039541;28;45619;-77
2022/08/02 00:50:27;;;;;;;;;4.00;3.75;;;;;23.14;50.71;101616.41;5039400;28;45521;-77
2022/08/02 00:52:53;;;;;;;;;5.00;3.75;;;;;23.12;50.50;101613.91;5057203;28;45384;-77
2022/08/02 00:55:18;;;;;;;;;4.00;4.00;;;;;23.13;50.93;101615.59;5057492;28;45306;-77
2022/08/02 00:57:44;;;;;;;;;3.50;3.50;;;;;23.03;51.01;101606.53;5057260;28;45302;-77
2022/08/02 01:00:10;;;;;;;;;4.25;3.00;;;;;23.06;51.34;101611.63;5055959;28;73930;-77
2022/08/02 01:02:35;;;;;;;;;5.25;2.75;;;;;23.03;51.27;101614.50;5057335;28;45379;-77
2022/08/02 01:05:00;;;;;;;;;4.75;3.75;;;;;22.99;51.11;101610.31;5070258;28;65057;-77
2022/08/02 01:07:26;;;;;;;;;4.75;4.00;;;;;;;;5077072;28;52607;-77
2022/08/02 01:09:51;;;;;;;;;2.67;2.67;;;;;22.95;51.30;101622.94;5059239;28;46958;-77
2022/08/02 01:12:16;;;;;;;;;4.00;3.50;;;;;22.93;51.02;101619.53;5076303;28;67953;-77
2022/08/02 01:14:43;;;;;;;;;2.75;2.75;;;;;22.84;51.01;101606.88;5075779;28;51012;-77
2022/08/02 01:17:18;;;;;;;;;5.75;4.25;;;;;22.88;51.26;101619.03;5076901;28;45171;-77
2022/08/02 01:19:54;;;;;;;;;6.00;3.50;;;;;22.84;51.51;101617.50;5059018;28;46310;-77
2022/08/02 01:22:50;;;;;;;;;2.75;2.75;;;;;22.78;51.42;101621.41;5059083;28;45783;-77
2022/08/02 01:25:25;;;;;;;;;3.50;3.00;;;;;22.73;51.14;101626.22;5077075;27;45500;-77
2022/08/02 01:28:15;;;;;;;;;2.50;2.50;;;;;22.67;51.25;101628.41;5058822;28;45554;-77
2022/08/02 01:30:43;;;;;;;;;7.00;4.00;;;;;22.59;51.80;101620.97;5074126;28;45535;-77
2022/08/02 01:33:12;;;;;;;;;1.50;1.50;;;;;22.54;51.67;101621.25;5038705;28;45633;-77
2022/08/02 01:35:41;;;;;;;;;3.50;3.50;;;;;22.61;51.73;101630.50;5038817;28;45514;-77
2022/08/02 01:38:09;;;;;;;;;4.25;4.00;;;;;22.58;51.84;101625.41;5057059;28;45314;-77
2022/08/02 01:40:36;;;;;;;;;3.00;3.00;;;;;22.57;51.82;101614.91;5038336;28;46745;-77
2022/08/02 01:43:02;;;;;;;;;6.00;5.25;;;;;22.51;52.50;101612.63;5056131;28;45444;-78
2022/08/02 01:45:32;;;;;;;;;5.25;3.75;;;;;22.52;52.24;101619.66;5037702;28;64409;-76
2022/08/02 01:47:59;;;;;;;;;4.00;4.00;;;;;22.48;52.12;101621.66;5038647;28;45408;-77
2022/08/02 01:50:34;;;;;;;;;4.00;2.75;;;;;22.45;52.23;101627.16;5038383;28;48829;-77
2022/08/02 01:53:04;;;;;;;;;4.25;3.75;;;;;22.36;52.69;101615.34;5038385;28;45699;-77
2022/08/02 01:55:43;;;;;;;;;2.50;2.50;;;;;22.42;52.37;101630.03;5056521;28;45412;-77
2022/08/02 01:58:08;;;;;;;;;3.00;2.00;;;;;22.35;52.68;101624.25;5037992;28;45460;-77
2022/08/02 02:00:38;;;;;;;;;3.00;3.00;;;;;22.34;52.51;101625.22;5038365;28;46580;-77
2022/08/02 02:03:05;;;;;;;;;5.00;5.00;;;;;22.29;52.71;101624.66;5038613;28;45983;-77
2022/08/02 02:05:31;;;;;;;;;3.50;3.25;;;;;22.18;52.84;101614.69;5056199;28;45523;-77
2022/08/02 02:07:58;;;;;;;;;3.50;3.00;;;;;22.16;53.08;101608.66;5057370;28;70333;-77
2022/08/02 02:10:28;;;;;;;;;3.25;3.25;;;;;22.12;53.08;101611.56;5058385;28;45444;-77
2022/08/02 02:12:56;;;;;;;;;3.50;3.50;;;;;22.12;53.24;101617.75;5058279;28;45891;-77
2022/08/02 02:15:24;;;;;;;;;5.25;4.00;;;;;22.00;53.33;101603.44;5076446;28;45406;-77
2022/08/02 02:17:51;;;;;;;;;4.50;4.50;;;;;22.04;53.35;101614.72;5058320;28;45724;-77
2022/08/02 02:20:18;;;;;;;;;5.00;4.00;;;;;22.02;53.20;101617.47;5058001;28;45590;-77
2022/08/02 02:22:44;;;;;;;;;4.00;4.00;;;;;21.93;53.17;101604.78;5058270;28;45665;-77
2022/08/02 02:25:10;;;;;;;;;4.75;3.00;;;;;21.95;53.19;101607.34;5075646;27;47957;-77
2022/08/02 02:27:38;;;;;;;;;3.00;3.00;;;;;21.94;53.11;101605.66;5057581;28;45461;-77
2022/08/02 02:30:05;;;;;;;;;5.00;5.00;;;;;21.92;53.40;101610.22;5058096;28;46467;-77
2022/08/02 02:32:31;;;;;;;;;6.75;4.00;;;;;21.86;53.98;101603.50;5039813;28;45595;-77
2022/08/02 02:34:58;;;;;;;;;3.75;3.75;;;;;21.82;53.18;101600.19;5037957;28;45309;-77
2022/08/02 02:37:25;;;;;;;;;3.00;3.00;;;;;21.82;53.82;101599.31;5037097;28;63904;-77
2022/08/02 02:39:53;;;;;;;;;5.75;4.25;;;;;21.87;53.62;101607.00;5037349;28;47289;-77
2022/08/02 02:42:22;;;;;;;;;4.75;3.75;;;;;21.82;53.60;101599.31;5055575;28;45345;-77
2022/08/02 02:44:49;;;;;;;;;4.00;4.00;;;;;21.78;54.00;101598.66;5037851;28;45443;-77
2022/08/02 02:47:16;;;;;;;;;4.00;4.00;;;;;21.84;53.78;101602.72;5036684;28;70493;-77
2022/08/02 02:49:42;;;;;;;;;4.00;4.00;;;;;21.81;54.07;101602.94;5037673;28;46160;-77
2022/08/02 02:52:08;;;;;;;;;7.00;3.25;;;;;21.76;54.18;101592.59;5020876;28;45312;-77
2022/08/02 02:54:35;;;;;;;;;3.25;3.00;;;;;21.81;54.49;101605.56;5054893;28;51362;-77
2022/08/02 02:57:02;;;;;;;;;4.50;4.00;;;;;21.78;54.19;101601.31;5037725;28;45336;-77
2022/08/02 02:59:28;;;;;;;;;4.25;3.25;;;;;21.79;54.24;101605.66;5037527;28;46489;-77
2022/08/02 03:01:54;;;;;;;;;6.00;4.25;;;;;21.77;53.91;101596.97;5037154;28;54538;-77
2022/08/02 03:04:20;;;;;;;;;4.25;4.00;;;;;21.76;54.53;101594.41;5044617;28;65794;-77
2022/08/02 03:06:45;;;;;;;;;5.00;4.00;;;;;21.71;54.15;101594.72;5075711;28;45430;-77
2022/08/02 03:09:11;;;;;;;;;6.00;5.00;;;;;21.76;54.00;101608.50;5074752;28;61631;-76
2022/08/02 03:11:37;;;;;;;;;4.50;4.50;;;;;21.67;54.48;101593.19;5057439;28;45290;-77
2022/08/02 03:14:04;;;;;;;;;5.00;5.00;;;;;21.72;54.32;101606.16;5075487;28;45280;-77
2022/08/02 03:16:29;;;;;;;;;5.00;4.75;;;;;21.68;54.58;101602.00;5075565;28;45354;-77
2022/08/02 03:18:55;;;;;;;;;6.25;5.25;;;;;21.61;54.13;101593.56;5057167;28;46541;-77
2022/08/02 03:21:21;;;;;;;;;5.50;4.75;;;;;21.63;54.69;101596.97;5075650;28;45309;-78
2022/08/02 03:23:47;;;;;;;;;5.50;4.00;;;;;21.54;54.35;101590.44;5075006;27;46520;-77
2022/08/02 03:26:13;;;;;;;;;4.25;4.25;;;;;21.54;54.71;101586.94;5057550;28;45491;-77
2022/08/02 03:28:39;;;;;;;;;4.75;4.00;;;;;21.58;54.28;101596.41;5075226;28;46538;-77
2022/08/02 03:31:04;;;;;;;;;5.00;5.00;;;;;21.56;54.74;101587.69;5068921;28;45461;-77
2022/08/02 03:33:30;;;;;;;;;5.25;5.00;;;;;21.54;54.35;101590.44;5055257;28;45547;-77
2022/08/02 03:35:58;;;;;;;;;5.00;4.00;;;;;21.54;54.50;101600.19;5037096;28;45478;-77
2022/08/02 03:38:25;;;;;;;;;7.00;5.00;;;;;21.44;54.31;101592.81;5037024;28;45438;-77
2022/08/02 03:40:51;;;;;;;;;5.00;5.00;;;;;21.41;53.97;101578.88;5057859;28;62959;-77
2022/08/02 03:43:16;;;;;;;;;4.00;3.75;;;;;21.45;54.75;101589.22;5040494;28;45595;-77
2022/08/02 03:45:43;;;;;;;;;3.25;3.00;;;;;21.36;54.17;101588.88;5040564;28;45301;-77
2022/08/02 03:48:09;;;;;;;;;4.00;4.00;;;;;21.30;54.57;101582.16;5058155;28;45463;-77
2022/08/02 03:50:35;;;;;;;;;4.00;4.00;;;;;21.37;54.20;101590.59;5058268;28;45637;-77
2022/08/02 03:53:00;;;;;;;;;4.75;4.75;;;;;21.29;54.28;101585.78;5039067;28;67382;-77
2022/08/02 03:55:26;;;;;;;;;4.25;4.00;;;;;21.30;54.85;101581.31;5039450;28;63228;-77
2022/08/02 03:57:51;;;;;;;;;7.00;4.50;;;;;21.34;55.01;101590.78;5057949;28;45371;-77
2022/08/02 04:00:18;;;;;;;;;5.25;5.25;;;;;21.31;54.27;101583.03;5057139;28;69541;-77
2022/08/02 04:02:44;;;;;;;;;4.00;4.00;;;;;21.31;54.95;101583.88;5040333;28;45198;-78
2022/08/02 04:05:09;;;;;;;;;5.50;4.50;;;;;21.28;54.35;101581.41;5072348;28;67949;-77
2022/08/02 04:07:35;;;;;;;;;4.50;3.50;;;;;21.19;54.57;101574.91;5077719;28;45349;-77
2022/08/02 04:10:00;;;;;;;;;5.00;5.00;;;;;21.23;54.99;101583.50;5078391;28;45412;-77
2022/08/02 04:12:25;;;;;;;;;2.50;2.50;;;;;21.17;55.13;101581.19;5077374;28;68068;-77
2022/08/02 04:14:51;;;;;;;;;4.00;2.75;;;;;21.16;54.13;101579.53;5077770;28;55019;-77
2022/08/02 04:17:18;;;;;;;;;5.00;5.00;;;;;21.21;55.41;101583.59;5077213;28;68421;-78
2022/08/02 04:19:51;;;;;;;;;5.00;4.00;;;;;21.18;54.79;101586.41;5078067;28;45431;-77
2022/08/02 04:22:20;;;;;;;;;4.25;4.00;;;;;21.10;54.64;101583.38;5059942;28;45493;-77
2022/08/02 04:24:49;;;;;;;;;4.00;4.00;;;;;21.08;54.77;101587.94;5066751;28;45472;-77
2022/08/02 04:27:16;;;;;;;;;3.50;3.50;;;;;21.01;55.17;101576.84;5076857;28;45490;-77
2022/08/02 04:29:42;;;;;;;;;4.75;4.75;;;;;21.04;54.74;101584.59;5076757;28;45419;-77
2022/08/02 04:32:08;;;;;;;;;4.00;4.00;;;;;21.01;54.88;101584.78;5076669;28;45533;-77
2022/08/02 04:34:33;;;;;;;;;4.50;4.50;;;;;20.98;55.10;101582.31;5077312;28;63000;-78
2022/08/02 04:36:59;;;;;;;;;4.75;4.00;;;;;20.94;55.36;101575.50;5076778;28;60741;-77
2022/08/02 04:39:25;;;;;;;;;5.25;5.25;;;;;20.97;55.30;101579.75;5077810;28;45477;-77
2022/08/02 04:41:51;;;;;;;;;5.00;3.00;;;;;21.00;55.05;101579.56;5078117;28;45473;-77
2022/08/02 04:44:17;;;;;;;;;3.25;3.25;;;;;21.06;55.38;101588.00;5077078;28;63518;-77
2022/08/02 04:46:42;;;;;;;;;4.00;4.00;;;;;21.03;55.85;101584.69;5077681;28;45411;-77
2022/08/02 04:49:08;;;;;;;;;4.75;4.25;;;;;21.02;55.54;101591.78;5077616;28;45402;-77
2022/08/02 04:51:35;;;;;;;;;6.00;4.00;;;;;20.95;55.42;101585.16;5077383;28;45562;-77
2022/08/02 04:54:01;;;;;;;;;4.00;4.00;;;;;20.85;55.47;101582.19;5076475;28;45482;-77
2022/08/02 04:56:27;;;;;;;;;5.25;4.75;;;;;20.87;55.26;101592.69;5077406;28;46498;-77
2022/08/02 04:58:52;;;;;;;;;3.00;3.00;;;;;20.87;55.88;101601.47;5077258;28;48936;-77
2022/08/02 05:01:17;;;;;;;;;4.00;4.00;;;;;20.84;55.75;101585.78;5077699;28;45330;-77
2022/08/02 05:03:43;;;;;;;;;3.75;3.75;;;;;20.89;56.02;101598.72;5076526;27;67633;-77
2022/08/02 05:06:08;;;;;;;;;5.25;4.00;;;;;20.93;55.40;101597.63;5077013;28;46288;-77
2022/08/02 05:08:33;;;;;;;;;4.00;3.00;;;;;20.93;55.05;101596.75;5077264;27;45333;-78
2022/08/02 05:10:59;;;;;;;;;3.25;3.00;;;;;20.84;55.41;101579.66;5077463;28;45315;-77
2022/08/02 05:13:24;;;;;;;;;4.00;4.00;;;;;20.91;55.19;101588.91;5076342;27;71438;-77
2022/08/02 05:15:49;;;;;;;;;4.25;3.00;;;;;20.92;55.44;101595.91;5077305;27;45415;-77
2022/08/02 05:18:15;;;;;;;;;5.75;4.75;;;;;20.87;55.11;101596.16;5077121;27;45376;-77
2022/08/02 05:20:40;;;;;;;;;4.00;4.00;;;;;20.84;54.92;101587.59;5076904;28;45273;-78
2022/08/02 05:23:06;;;;;;;;;5.25;5.25;;;;;20.83;55.43;101597.28;5077133;28;48981;-77
2022/08/02 05:25:31;;;;;;;;;3.75;3.75;;;;;20.87;55.18;101596.16;5076924;27;46525;-77
2022/08/02 05:27:57;;;;;;;;;4.00;2.25;;;;;20.82;55.06;101597.38;5076056;28;72254;-77
2022/08/02 05:30:22;;;;;;;;;3.50;3.50;;;;;20.77;55.41;101605.59;5075735;28;67779;-76
2022/08/02 05:32:49;;;;;;;;;4.00;4.00;;;;;20.78;55.12;101603.78;5056777;28;45329;-77
2022/08/02 05:35:19;;;;;;;;;2.75;2.75;;;;;20.76;55.60;101608.31;5056404;28;46596;-77
2022/08/02 05:37:45;;;;;;;;;4.25;3.00;;;;;20.71;55.48;101608.59;5038627;28;45941;-77
2022/08/02 05:40:11;;;;;;;;;4.00;3.00;;;;;20.63;55.72;101603.72;5056752;28;45448;-77
2022/08/02 05:42:36;;;;;;;;;5.00;3.00;;;;;20.58;55.92;101595.19;5056660;28;45492;-78
2022/08/02 05:45:03;;;;;;;;;5.25;5.00;;;;;20.58;55.74;101589.03;5055644;28;69531;-77
2022/08/02 05:47:28;;;;;;;;;1.00;1.00;;;;;20.58;55.81;101594.31;5056543;28;45708;-77
2022/08/02 05:49:53;;;;;;;;;3.25;3.00;;;;;20.54;56.00;101593.69;5056250;28;45315;-77
2022/08/02 05:52:20;;;;;;;;;4.00;3.25;;;;;20.53;56.40;101599.91;5056155;28;51786;-78
2022/08/02 05:55:21;;;;;;;;;3.00;3.00;;;;;20.56;55.96;101605.03;5038186;28;48066;-77
2022/08/02 05:57:54;;;;;;;;;5.00;3.00;;;;;20.57;56.59;101598.78;4977790;28;45454;-77
2022/08/02 06:00:20;;;;;;;;;4.50;3.00;;;;;20.63;56.20;101600.25;4994289;28;45406;-77
2022/08/02 06:02:56;;;;;;;;;4.25;3.00;;;;;20.71;56.12;101602.44;4993672;28;45428;-77
2022/08/02 06:05:25;;;;;;;;;5.50;3.00;;;;;20.75;56.16;101599.53;4993919;28;48145;-77
2022/08/02 06:07:54;;;;;;;;;3.25;3.00;;;;;20.74;56.10;101595.19;4993964;28;45971;-77
2022/08/02 06:10:20;;;;;;;;;4.25;4.00;;;;;20.80;56.03;101600.13;4977554;28;45344;-77
2022/08/02 06:13:03;;;;;;;;;4.00;4.00;;;;;20.82;55.56;101603.53;4977749;28;45649;-75
2022/08/02 06:15:29;;;;;;;;;5.50;4.00;;;;;20.85;55.89;101599.84;4994178;28;45543;-77
2022/08/02 06:17:55;;;;;;;;;4.75;3.25;;;;;20.94;55.85;101599.31;4977117;28;45412;-77
2022/08/02 06:20:21;;;;;;;;;3.00;3.00;;;;;21.03;55.45;101604.06;4976600;28;62941;-77
2022/08/02 06:22:47;;;;;;;;;8.00;4.00;;;;;21.11;55.47;101600.13;4976974;28;63891;-77
2022/08/02 06:25:13;;;;;;;;;3.25;2.25;;;;;21.13;55.09;101607.00;5003527;28;74572;-77
2022/08/02 06:27:40;;;;;;;;;3.50;3.50;;;;;21.13;55.20;101604.38;5033534;28;45404;-77
2022/08/02 06:30:08;;;;;;;;;3.75;3.75;;;;;21.10;55.05;101603.69;5033749;28;45472;-77
2022/08/02 06:32:33;;;;;;;;;5.25;4.75;;;;;21.15;55.08;101628.09;5037200;28;45513;-77
2022/08/02 06:34:59;;;;;;;;;4.50;4.00;;;;;21.12;54.93;101610.63;5055679;28;45570;-77
2022/08/02 06:37:42;;;;;;;;;5.00;3.50;;;;;21.16;54.74;101612.13;5055976;28;45455;-77
2022/08/02 06:40:22;;;;;;;;;3.50;3.00;;;;;21.16;55.34;101604.19;5088611;27;45406;-77
2022/08/02 06:42:50;;;;;;;;;4.25;3.00;;;;;21.20;55.46;101602.22;5054715;28;45616;-77
2022/08/02 06:45:16;;;;;;;;;3.00;3.00;;;;;21.27;54.79;101609.69;5088316;27;46450;-77
2022/08/02 06:47:42;;;;;;;;;5.25;2.25;;;;;21.31;54.76;101620.09;5055152;28;45421;-77
2022/08/02 06:50:09;;;;;;;;;2.75;2.50;;;;;21.28;55.02;101621.13;5055746;28;45415;-77
2022/08/02 06:52:35;;;;;;;;;3.00;2.50;;;;;21.35;54.47;101624.25;5054367;28;45324;-77
2022/08/02 06:55:02;;;;;;;;;3.25;3.25;;;;;21.41;54.17;101627.41;5055397;28;45379;-77
2022/08/02 06:57:27;;;;;;;;;4.50;3.00;;;;;21.47;54.37;101626.22;5055513;28;45686;-77
2022/08/02 06:59:53;;;;;;;;;3.00;3.00;;;;;21.53;53.97;101635.59;5055700;28;45383;-77
2022/08/02 07:02:19;;;;;;;;;4.00;2.75;;;;;21.53;54.10;101628.47;5055168;28;45516;-77
2022/08/02 07:04:44;;;;;;;;;4.00;3.75;;;;;21.55;53.54;101623.09;5099643;27;46012;-77
2022/08/02 07:07:09;;;;;;;;;3.50;3.00;;;;;21.61;53.23;101628.00;5075502;28;45446;-77
2022/08/02 07:09:35;;;;;;;;;3.00;2.25;;;;;21.65;53.11;101619.75;5074116;28;51357;-76
2022/08/02 07:12:00;;;;;;;;;4.00;2.00;;;;;21.70;52.84;101629.25;5074644;28;45236;-77
2022/08/02 07:14:26;;;;;;;;;2.25;2.25;;;;;21.77;52.88;101625.28;5077429;27;45387;-77
2022/08/02 07:16:52;;;;;;;;;3.00;3.00;;;;;21.80;52.63;101633.00;5078643;27;45272;-78
2022/08/02 07:19:17;;;;;;;;;6.00;3.00;;;;;21.88;53.31;101633.41;5079184;28;45407;-77
2022/08/02 07:21:43;;;;;;;;;3.25;3.00;;;;;21.87;52.86;101628.19;5078103;28;69639;-77
2022/08/02 07:24:08;;;;;;;;;4.75;4.00;;;;;21.95;52.78;101629.44;5077953;27;64702;-77
2022/08/02 07:26:33;;;;;;;;;4.00;4.00;;;;;21.97;52.12;101637.25;5078896;27;45464;-77
2022/08/02 07:28:59;;;;;;;;;3.50;2.00;;;;;22.01;52.50;101638.78;5079036;27;45479;-77
2022/08/02 07:31:24;;;;;;;;;2.50;2.50;;;;;22.07;52.43;101645.50;5078493;28;45398;-77
2022/08/02 07:33:49;;;;;;;;;4.25;3.00;;;;;22.09;52.54;101633.84;5078499;28;46083;-77
2022/08/02 07:36:15;;;;;;;;;3.00;3.00;;;;;22.14;51.83;101631.75;5078332;28;60643;-76
2022/08/02 07:38:40;;;;;;;;;3.00;3.00;;;;;22.22;51.34;101644.53;5078101;28;66447;-77
2022/08/02 07:41:05;;;;;;;;;3.00;3.00;;;;;22.28;51.41;101635.34;5077801;28;70428;-77
2022/08/02 07:43:31;;;;;;;;;4.00;4.00;;;;;22.27;51.58;101625.69;5077787;28;73097;-77
2022/08/02 07:45:56;;;;;;;;;2.50;2.00;;;;;22.24;51.36;101626.72;5077428;28;65515;-77
2022/08/02 07:48:21;;;;;;;;;6.75;4.50;;;;;22.27;51.30;101634.50;5077820;28;66417;-78
2022/08/02 07:50:48;;;;;;;;;4.25;3.00;;;;;22.32;51.56;101636.84;5078738;28;45282;-77
2022/08/02 07:53:13;;;;;;;;;2.00;2.00;;;;;22.31;51.56;101633.34;5078279;28;45290;-77
2022/08/02 07:55:39;;;;;;;;;3.25;2.25;;;;;22.44;51.34;101637.88;5078470;28;45567;-77
2022/08/02 07:58:04;;;;;;;;;4.00;2.50;;;;;22.51;51.52;101636.50;5078514;28;45296;-77
2022/08/02 08:00:30;;;;;;;;;3.25;2.00;;;;;22.55;51.18;101641.53;5077244;28;69500;-77
2022/08/02 08:02:55;;;;;;;;;3.00;3.00;;;;;22.61;50.74;101646.41;5078318;28;45464;-77
2022/08/02 08:05:22;;;;;;;;;5.25;3.50;;;;;22.68;50.35;101638.94;5077544;27;67240;-78
2022/08/02 08:07:47;;;;;;;;;5.25;3.00;;;;;22.71;50.63;101643.16;5078433;27;45740;-77
2022/08/02 08:10:13;;;;;;;;;2.50;2.50;;;;;22.83;51.00;101644.19;5077894;28;52739;-78
2022/08/02 08:12:38;;;;;;;;;5.00;2.25;;;;;22.83;50.64;101631.75;5077190;27;68293;-77
2022/08/02 08:15:04;;;;;;;;;2.75;2.75;;;;;22.90;50.73;101632.16;5077253;27;60611;-77
2022/08/02 08:17:29;;;;;;;;;3.00;3.00;;;;;22.88;50.11;101626.13;5078407;28;45486;-77
2022/08/02 08:19:55;;;;;;;;;3.25;2.00;;;;;22.94;50.02;101623.91;5077137;28;45496;-77
2022/08/02 08:22:21;;;;;;;;;2.00;2.00;;;;;22.99;49.94;101624.47;5077262;28;64227;-77
2022/08/02 08:24:47;;;;;;;;;2.75;2.50;;;;;23.07;50.59;101623.97;5077424;28;45537;-77
2022/08/02 08:27:14;;;;;;;;;1.75;1.75;;;;;23.17;49.87;101625.03;5078224;28;45455;-77
2022/08/02 08:29:41;;;;;;;;;3.25;2.50;;;;;23.25;49.58;101623.66;5077638;28;45546;-77
2022/08/02 08:32:07;;;;;;;;;3.00;3.00;;;;;23.38;49.37;101621.84;5062833;28;45453;-77
2022/08/02 08:34:33;;;;;;;;;2.75;2.75;;;;;23.46;49.39;101616.00;5057513;28;45444;-77
2022/08/02 08:36:59;;;;;;;;;2.50;2.50;;;;;23.57;49.35;101616.97;5057625;28;45373;-78
2022/08/02 08:39:24;;;;;;;;;2.50;2.50;;;;;23.54;48.30;101611.03;5057606;28;45335;-77
2022/08/02 08:41:50;;;;;;;;;3.50;2.75;;;;;23.56;48.83;101615.25;5057505;28;46352;-77
2022/08/02 08:44:15;;;;;;;;;4.00;4.00;;;;;23.60;48.58;101607.09;5057056;28;45335;-77
2022/08/02 08:46:42;;;;;;;;;5.00;3.00;;;;;23.70;48.07;101616.97;5056611;28;69153;-77
2022/08/02 08:49:11;;;;;;;;;4.00;3.25;;;;;23.81;47.92;101615.38;5057671;28;45523;-77
2022/08/02 08:51:42;;;;;;;;;3.00;3.00;;;;;23.87;48.13;101614.97;5039048;28;51308;-77
2022/08/02 08:54:09;;;;;;;;;2.00;2.00;;;;;23.95;47.91;101618.75;5057245;28;45692;-77
2022/08/02 08:56:35;;;;;;;;;4.50;4.00;;;;;24.05;47.46;101616.28;5057086;28;45498;-77
2022/08/02 08:59:02;;;;;;;;;3.00;3.00;;;;;24.12;47.46;101612.22;5057438;28;45346;-77
2022/08/02 09:01:28;;;;;;;;;3.00;3.00;;;;;24.15;47.53;101612.00;5039216;28;47438;-77
2022/08/02 09:03:53;;;;;;;;;2.75;2.75;;;;;24.21;46.84;101613.34;5061532;28;45480;-77
2022/08/02 09:06:19;;;;;;;;;3.00;2.00;;;;;24.25;46.53;101614.81;5076571;28;64737;-77
2022/08/02 09:08:44;;;;;;;;;3.25;3.25;;;;;24.22;46.59;101608.88;5077160;28;45593;-77
2022/08/02 09:11:18;;;;;;;;;2.25;2.00;;;;;24.12;46.78;101609.53;5076919;28;45350;-77
2022/08/02 09:13:55;;;;;;;;;3.00;2.00;;;;;24.16;46.65;101610.19;5077027;28;45370;-77
2022/08/02 09:16:41;;;;;;;;;2.50;2.50;;;;;24.19;47.69;101606.47;5077263;28;45377;-77
2022/08/02 09:19:20;;;;;;;;;3.00;3.00;;;;;24.23;46.60;101605.28;5058948;28;45400;-77
2022/08/02 09:21:48;;;;;;;;;4.00;3.00;;;;;24.27;47.05;101593.44;5076791;28;45481;-77
2022/08/02 09:24:20;;;;;;;;;2.00;2.00;;;;;24.41;46.87;101605.75;5076876;28;45327;-77
2022/08/02 09:26:46;;;;;;;;;4.50;4.00;;;;;24.52;46.61;101603.16;5076610;28;45399;-77
2022/08/02 09:29:12;;;;;;;;;2.75;2.50;;;;;24.56;46.00;101593.13;5077025;28;45510;-77
2022/08/02 09:31:38;;;;;;;;;3.00;3.00;;;;;24.65;46.37;101598.63;5047678;28;46522;-78
2022/08/02 09:34:05;;;;;;;;;3.50;3.50;;;;;24.73;46.03;101592.72;5056504;28;45423;-77
2022/08/02 09:36:45;;;;;;;;;3.00;3.00;;;;;24.73;46.11;101595.38;5054808;28;69289;-77
2022/08/02 09:39:12;;;;;;;;;6.00;4.25;;;;;24.80;46.09;101593.09;5056743;28;45365;-77
2022/08/02 09:41:40;;;;;;;;;4.25;3.75;;;;;24.79;46.67;101586.06;5038214;28;45714;-77
2022/08/02 09:44:07;;;;;;;;;5.75;3.50;;;;;24.81;46.08;101582.31;5056606;28;45852;-77
2022/08/02 09:46:42;;;;;;;;;5.00;4.00;;;;;24.89;45.93;101595.06;5056665;28;45273;-77
2022/08/02 09:49:10;;;;;;;;;3.00;3.00;;;;;24.97;45.55;101576.69;5056589;28;45227;-77
2022/08/02 09:51:47;;;;;;;;;3.00;3.00;;;;;25.02;45.56;101581.66;5056248;28;45415;-77
2022/08/02 09:54:22;;;;;;;;;3.00;3.00;;;;;25.10;45.93;101574.75;5056416;28;45721;-77
2022/08/02 09:56:53;;;;;;;;;2.00;2.00;;;;;25.15;45.87;101573.56;5056117;28;45488;-77
2022/08/02 09:59:20;;;;;;;;;2.25;2.25;;;;;25.27;45.29;101581.47;5056650;28;45500;-77
2022/08/02 10:01:48;;;;;;;;;3.50;3.50;;;;;25.32;45.33;101572.28;5038069;28;45485;-77
2022/08/02 10:04:14;;;;;;;;;2.00;2.00;;;;;25.41;45.26;101568.91;5063521;28;45512;-77
2022/08/02 10:06:43;;;;;;;;;3.00;3.00;;;;;25.47;45.24;101558.59;5058583;28;45503;-77
2022/08/02 10:09:09;;;;;;;;;6.00;3.25;;;;;25.61;44.89;101568.19;5076257;28;45329;-77
2022/08/02 10:11:35;;;;;;;;;4.00;3.00;;;;;25.74;44.38;101573.34;5076479;28;46451;-77
2022/08/02 10:14:02;;;;;;;;;4.00;4.00;;;;;25.82;43.96;101568.25;5076353;28;45866;-77
2022/08/02 10:16:27;;;;;;;;;3.75;3.00;;;;;25.89;44.66;101568.59;5076425;28;45483;-77
2022/08/02 10:18:54;;;;;;;;;3.50;2.50;;;;;26.00;44.10;101573.97;5076385;28;45471;-77
2022/08/02 10:21:31;;;;;;;;;3.25;3.25;;;;;26.12;43.58;101577.44;5076295;28;47029;-77
2022/08/02 10:24:08;;;;;;;;;4.00;3.00;;;;;26.20;43.23;101572.31;5076177;27;45328;-77
2022/08/02 10:26:35;;;;;;;;;4.25;2.50;;;;;26.32;42.82;101574.94;5076358;28;45342;-77
2022/08/02 10:29:00;;;;;;;;;2.00;2.00;;;;;26.42;42.42;101565.22;5058121;28;45306;-76
2022/08/02 10:31:29;;;;;;;;;3.00;2.00;;;;;26.57;41.69;101571.94;5066802;28;45396;-77
2022/08/02 10:33:57;;;;;;;;;2.00;2.00;;;;;26.66;41.77;101570.34;5037704;28;45360;-77
2022/08/02 10:36:25;;;;;;;;;3.00;3.00;;;;;26.76;41.68;101560.56;5038105;28;45377;-77
2022/08/02 10:38:52;;;;;;;;;2.75;2.00;;;;;26.88;41.17;101561.38;5055584;28;45423;-78
2022/08/02 10:41:40;;;;;;;;;3.25;3.25;;;;;27.00;41.11;101570.16;5038148;28;46196;-77
2022/08/02 10:44:05;;;;;;;;;3.50;2.75;;;;;27.07;41.34;101562.47;5055737;28;45599;-77
2022/08/02 10:46:34;;;;;;;;;4.00;3.00;;;;;27.16;40.62;101564.34;5054658;28;65190;-77
2022/08/02 10:49:06;;;;;;;;;2.75;2.75;;;;;27.19;40.07;101556.03;5058715;28;45219;-77
2022/08/02 10:51:55;;;;;;;;;1.75;1.75;;;;;27.23;39.04;101563.69;5059085;28;46586;-77
2022/08/02 10:54:25;;;;;;;;;3.25;2.00;;;;;27.28;39.13;101563.28;5058730;28;45356;-77
2022/08/02 10:56:52;;;;;;;;;3.00;3.00;;;;;27.35;38.87;101564.44;5059046;28;45450;-76
2022/08/02 10:59:27;;;;;;;;;2.25;2.00;;;;;27.47;38.96;101559.00;5059303;28;45412;-77
2022/08/02 11:02:00;;;;;;;;;3.75;3.00;;;;;27.54;39.52;101554.81;5040906;28;46269;-77
2022/08/02 11:04:28;;;;;;;;;2.75;2.25;;;;;27.73;38.98;101556.69;5067805;28;45704;-77
2022/08/02 11:07:14;;;;;;;;;2.25;2.25;;;;;27.84;39.43;101553.94;5060891;28;45368;-78
2022/08/02 11:09:40;;;;;;;;;1.50;1.50;;;;;27.97;38.87;101553.69;5079480;28;45530;-77
2022/08/02 11:12:09;;;;;;;;;2.75;2.75;;;;;28.09;38.30;101539.22;5079009;28;46354;-77
2022/08/02 11:14:39;;;;;;;;;2.50;2.25;;;;;28.24;37.45;101552.19;5079028;28;45682;-76
2022/08/02 11:17:09;;;;;;;;;3.75;2.50;;;;;28.30;37.27;101547.09;5079432;28;45396;-77
2022/08/02 11:20:10;;;;;;;;;4.00;4.00;;;;;28.42;38.01;101541.59;5079205;28;45434;-77
2022/08/02 11:22:36;;;;;;;;;3.00;3.00;;;;;28.54;38.74;101538.66;5078450;28;45555;-78
2022/08/02 11:25:23;;;;;;;;;2.75;2.75;;;;;28.77;37.50;101541.88;5078813;28;45444;-77
2022/08/02 11:27:49;;;;;;;;;2.00;2.00;;;;;29.00;37.11;101533.50;5079106;28;45440;-78
2022/08/02 11:30:15;;;;;;;;;2.25;2.25;;;;;29.21;36.35;101533.31;5078994;28;45374;-77